createdAt,value
2023-03-28T00:01:40.902Z,-23203.69
2023-03-28T00:03:43.517Z,-23203.03
2023-03-28T00:05:49.118Z,-23204.31
2023-03-28T00:07:52.024Z,-23203.84
2023-03-28T00:09:57.326Z,-23207.50
2023-03-28T00:12:00.138Z,-23204.47
2023-03-28T00:14:03.464Z,-23205.59
2023-03-28T00:16:08.886Z,-23204.63
2023-03-28T00:18:12.660Z,-23204.63
2023-03-28T00:20:15.959Z,-23204.16
2023-03-28T00:22:20.052Z,-23205.28
2023-03-28T00:24:22.629Z,-23205.59
2023-03-28T00:26:26.841Z,-23203.84
2023-03-28T00:28:29.545Z,-23202.56
2023-03-28T00:30:32.225Z,-23201.59
2023-03-28T00:32:34.917Z,-23203.38
2023-03-28T00:34:37.650Z,-23203.03
2023-03-28T00:36:41.779Z,-23204.63
2023-03-28T00:38:44.508Z,-23206.06
2023-03-28T00:40:48.603Z,-23204.63
2023-03-28T00:42:52.736Z,-23203.38
2023-03-28T00:44:56.736Z,-23204.16
2023-03-28T00:46:59.339Z,-23201.59
2023-03-28T00:49:04.824Z,-23202.88
2023-03-28T00:51:08.457Z,-23201.75
2023-03-28T00:53:14.768Z,-23199.69
2023-03-28T00:55:22.415Z,-23200.50
2023-03-28T00:57:26.993Z,-23202.41
2023-03-28T00:59:34.229Z,-23201.28
2023-03-28T01:01:37.471Z,-23201.59
2023-03-28T01:03:46.470Z,-23200.50
2023-03-28T01:05:49.625Z,-23200.81
2023-03-28T01:07:57.843Z,-23200.81
2023-03-28T01:10:01.588Z,-23200.66
2023-03-28T01:12:04.692Z,-23200.66
2023-03-28T01:14:09.007Z,-23199.84
2023-03-28T01:16:14.494Z,-23200.81
2023-03-28T01:18:18.611Z,-23198.88
2023-03-28T01:20:49.240Z,-23198.25
2023-03-28T01:23:33.549Z,-23196.03
2023-03-28T01:26:22.306Z,-23195.38
2023-03-28T01:28:44.809Z,-23197.13
2023-03-28T01:31:15.974Z,-23194.09
2023-03-28T01:33:45.782Z,-23194.09
2023-03-28T01:36:34.052Z,-23190.44
2023-03-28T01:38:47.033Z,-23188.84
2023-03-28T01:40:54.922Z,-23188.50
2023-03-28T01:43:09.012Z,-23188.66
2023-03-28T01:45:19.096Z,-23188.03
2023-03-28T01:47:31.347Z,-23187.41
2023-03-28T01:49:41.253Z,-23189.00
2023-03-28T01:51:58.145Z,-23189.63
2023-03-28T01:54:12.492Z,-23188.84
2023-03-28T01:56:22.400Z,-23188.66
2023-03-28T01:58:32.397Z,-23190.59
2023-03-28T02:00:43.014Z,-23192.19
2023-03-28T02:02:53.448Z,-23190.91
2023-03-28T02:04:58.993Z,-23190.28
2023-03-28T02:07:03.086Z,-23189.63
2023-03-28T02:09:09.796Z,-23190.59
2023-03-28T02:11:12.899Z,-23190.28
2023-03-28T02:13:18.808Z,-23189.00
2023-03-28T02:15:24.671Z,-23188.66
2023-03-28T02:17:29.261Z,-23189.00
2023-03-28T02:19:34.817Z,-23188.03
2023-03-28T02:21:43.954Z,-23189.63
2023-03-28T02:23:49.835Z,-23188.66
2023-03-28T02:25:54.183Z,-23188.34
2023-03-28T02:28:01.157Z,-23186.59
2023-03-28T02:30:03.710Z,-23188.66
2023-03-28T02:32:07.050Z,-23187.72
2023-03-28T02:34:10.754Z,-23189.63
2023-03-28T02:36:36.048Z,-23189.31
2023-03-28T02:38:44.299Z,-23187.88
2023-03-28T02:40:58.849Z,-23187.56
2023-03-28T02:43:47.501Z,-23189.00
2023-03-28T02:46:01.210Z,-23187.06
2023-03-28T02:48:17.939Z,-23188.34
2023-03-28T02:50:27.331Z,-23189.00
2023-03-28T02:52:36.883Z,-23186.91
2023-03-28T02:54:49.241Z,-23184.53
2023-03-28T02:57:03.307Z,-23184.19
2023-03-28T02:59:09.890Z,-23183.56
2023-03-28T03:01:14.588Z,-23184.19
2023-03-28T03:03:18.810Z,-23181.31
2023-03-28T03:05:22.720Z,-23179.41
2023-03-28T03:07:25.932Z,-23184.84
2023-03-28T03:09:28.487Z,-23184.53
2023-03-28T03:11:31.235Z,-23180.69
2023-03-28T03:13:35.342Z,-23181.97
2023-03-28T03:15:38.246Z,-23182.91
2023-03-28T03:17:40.993Z,-23180.19
2023-03-28T03:19:44.361Z,-23181.81
2023-03-28T03:21:47.112Z,-23179.41
2023-03-28T03:23:49.854Z,-23177.81
2023-03-28T03:25:52.872Z,-23179.88
2023-03-28T03:27:55.548Z,-23179.72
2023-03-28T03:29:59.513Z,-23180.53
2023-03-28T03:32:02.149Z,-23177.00
2023-03-28T03:34:04.938Z,-23175.56
2023-03-28T03:36:09.682Z,-23172.84
2023-03-28T03:38:12.411Z,-23173.34
2023-03-28T03:40:15.180Z,-23171.72
2023-03-28T03:42:17.791Z,-23171.25
2023-03-28T03:44:20.645Z,-23171.09
2023-03-28T03:46:24.764Z,-23169.50
2023-03-28T03:48:27.454Z,-23169.03
2023-03-28T03:50:30.169Z,-23167.91
2023-03-28T03:52:32.742Z,-23166.16
2023-03-28T03:54:36.841Z,-23164.56
2023-03-28T03:56:40.860Z,-23162.16
2023-03-28T03:58:43.692Z,-23162.63
2023-03-28T04:00:46.625Z,-23163.09
2023-03-28T04:02:50.643Z,-23161.19
2023-03-28T04:04:53.552Z,-23162.31
2023-03-28T04:06:58.204Z,-23160.06
2023-03-28T04:09:01.118Z,-23159.75
2023-03-28T04:11:03.780Z,-23158.00
2023-03-28T04:13:06.469Z,-23158.31
2023-03-28T04:15:10.193Z,-23157.34
2023-03-28T04:17:13.817Z,-23158.00
2023-03-28T04:19:18.175Z,-23157.19
2023-03-28T04:21:25.678Z,-23157.03
2023-03-28T04:23:28.644Z,-23155.13
2023-03-28T04:25:31.502Z,-23156.56
2023-03-28T04:27:34.105Z,-23155.13
2023-03-28T04:29:37.026Z,-23156.06
2023-03-28T04:31:40.399Z,-23153.03
2023-03-28T04:33:45.288Z,-23153.84
2023-03-28T04:35:51.286Z,-23155.75
2023-03-28T04:37:57.754Z,-23158.78
2023-03-28T04:40:01.623Z,-23156.88
2023-03-28T04:42:05.864Z,-23156.41
2023-03-28T04:44:08.535Z,-23152.41
2023-03-28T04:46:11.820Z,-23154.97
2023-03-28T04:48:14.496Z,-23155.75
2023-03-28T04:50:17.276Z,-23155.75
2023-03-28T04:52:21.351Z,-23155.44
2023-03-28T04:54:23.959Z,-23155.44
2023-03-28T04:56:27.212Z,-23154.63
2023-03-28T04:58:29.930Z,-23151.13
2023-03-28T05:00:32.983Z,-23152.88
2023-03-28T05:02:35.851Z,-23151.91
2023-03-28T05:04:40.371Z,-23151.75
2023-03-28T05:06:43.009Z,-23153.19
2023-03-28T05:08:47.053Z,-23151.59
2023-03-28T05:10:50.972Z,-23152.88
2023-03-28T05:12:53.630Z,-23153.03
2023-03-28T05:14:56.242Z,-23152.88
2023-03-28T05:16:58.873Z,-23150.66
2023-03-28T05:19:01.667Z,-23150.66
2023-03-28T05:21:04.645Z,-23151.28
2023-03-28T05:23:07.654Z,-23149.38
2023-03-28T05:25:11.906Z,-23152.25
2023-03-28T05:27:14.680Z,-23151.44
2023-03-28T05:29:17.302Z,-23151.75
2023-03-28T05:31:19.891Z,-23151.59
2023-03-28T05:33:22.669Z,-23154.00
2023-03-28T05:35:25.389Z,-23155.59
2023-03-28T05:37:28.607Z,-23156.41
2023-03-28T05:39:31.427Z,-23158.97
2023-03-28T05:41:35.454Z,-23161.03
2023-03-28T05:43:38.057Z,-23158.97
2023-03-28T05:45:41.793Z,-23160.41
2023-03-28T05:47:44.548Z,-23159.28
2023-03-28T05:49:47.220Z,-23165.03
2023-03-28T05:51:49.932Z,-23166.63
2023-03-28T05:53:52.569Z,-23167.25
2023-03-28T05:55:55.220Z,-23167.59
2023-03-28T05:58:00.036Z,-23169.03
2023-03-28T06:00:04.010Z,-23169.81
2023-03-28T06:02:07.543Z,-23171.25
2023-03-28T06:04:10.784Z,-23172.69
2023-03-28T06:06:13.674Z,-23173.50
2023-03-28T06:08:16.580Z,-23176.22
2023-03-28T06:10:19.485Z,-23177.50
2023-03-28T06:12:22.082Z,-23180.06
2023-03-28T06:14:26.080Z,-23181.00
2023-03-28T06:16:31.211Z,-23184.69
2023-03-28T06:18:34.440Z,-23187.41
2023-03-28T06:20:37.026Z,-23190.59
2023-03-28T06:22:40.751Z,-23191.22
2023-03-28T06:24:43.340Z,-23194.09
2023-03-28T06:26:46.275Z,-23195.84
2023-03-28T06:28:48.900Z,-23197.63
2023-03-28T06:30:52.900Z,-23200.31
2023-03-28T06:32:55.737Z,-23206.88
2023-03-28T06:34:58.363Z,-23209.44
2023-03-28T06:37:01.828Z,-23209.13
2023-03-28T06:39:05.219Z,-23212.00
2023-03-28T06:41:08.103Z,-23213.09
2023-03-28T06:43:10.708Z,-23218.69
2023-03-28T06:45:13.311Z,-23218.38
2023-03-28T06:47:17.251Z,-23222.19
2023-03-28T06:49:19.901Z,-23225.06
2023-03-28T06:51:22.480Z,-23230.50
2023-03-28T06:53:25.607Z,-23234.81
2023-03-28T06:55:28.254Z,-23237.50
2023-03-28T06:57:30.916Z,-23251.22
2023-03-28T06:59:33.565Z,-23281.84
2023-03-28T07:01:36.231Z,-23295.38
2023-03-28T07:03:40.339Z,-23283.75
2023-03-28T07:05:44.004Z,-23299.38
2023-03-28T07:07:46.658Z,-23281.84
2023-03-28T07:09:51.812Z,-23330.09
2023-03-28T07:11:54.499Z,-23316.88
2023-03-28T07:13:57.139Z,-23339.16
2023-03-28T07:16:04.880Z,-23311.78
2023-03-28T07:18:10.476Z,-23345.84
2023-03-28T07:20:14.945Z,-23353.81
2023-03-28T07:22:17.572Z,-23342.03
2023-03-28T07:24:20.559Z,-23339.81
2023-03-28T07:26:23.181Z,-23309.88
2023-03-28T07:28:25.897Z,-23291.41
2023-03-28T07:30:28.516Z,-23291.09
2023-03-28T07:32:38.902Z,-23334.25
2023-03-28T07:34:50.332Z,-23303.19
2023-03-28T07:36:54.348Z,-23311.16
2023-03-28T07:38:56.974Z,-23386.41
2023-03-28T07:41:01.211Z,-23379.56
2023-03-28T07:43:04.261Z,-23399.44
2023-03-28T07:45:07.930Z,-23351.91
2023-03-28T07:47:11.288Z,-23309.25
2023-03-28T07:49:15.336Z,-23352.38
2023-03-28T07:51:18.502Z,-23402.44
2023-03-28T07:53:22.539Z,-23417.38
2023-03-28T07:55:26.210Z,-23422.47
2023-03-28T07:57:28.796Z,-23367.34
2023-03-28T07:59:31.392Z,-23335.66
2023-03-28T08:01:34.010Z,-23353.19
2023-03-28T08:03:37.096Z,-23350.00
2023-03-28T08:05:39.905Z,-23364.47
2023-03-28T08:07:45.926Z,-23363.34
2023-03-28T08:09:50.945Z,-23387.19
2023-03-28T08:11:53.560Z,-23397.22
2023-03-28T08:13:56.157Z,-23390.06
2023-03-28T08:15:58.913Z,-23384.66
2023-03-28T08:18:01.542Z,-23394.03
2023-03-28T08:20:09.306Z,-23337.25
2023-03-28T08:22:13.105Z,-23322.31
2023-03-28T08:24:25.438Z,-23316.72
2023-03-28T08:26:37.543Z,-23331.06
2023-03-28T08:28:41.119Z,-23308.59
2023-03-28T08:30:43.718Z,-23300.63
2023-03-28T08:32:48.790Z,-23316.72
2023-03-28T08:34:51.595Z,-23350.31
2023-03-28T08:36:54.232Z,-23368.75
2023-03-28T08:39:00.622Z,-23393.56
2023-03-28T08:41:15.708Z,-23350.63
2023-03-28T08:43:40.876Z,-23361.13
2023-03-28T08:45:51.503Z,-23348.72
2023-03-28T08:48:01.376Z,-23364.78
2023-03-28T08:50:12.344Z,-23330.09
2023-03-28T08:52:19.619Z,-23333.13
2023-03-28T08:54:25.840Z,-23355.09
2023-03-28T08:56:29.625Z,-23411.97
2023-03-28T08:58:42.536Z,-23389.44
2023-03-28T09:00:45.226Z,-23372.72
2023-03-28T09:02:50.471Z,-23351.09
2023-03-28T09:05:05.113Z,-23381.97
2023-03-28T09:07:26.384Z,-23363.84
2023-03-28T09:09:43.238Z,-23354.44
2023-03-28T09:12:03.438Z,-23398.97
2023-03-28T09:14:23.589Z,-23428.19
2023-03-28T09:16:53.104Z,-23366.53
2023-03-28T09:19:11.447Z,-23341.72
2023-03-28T09:21:22.218Z,-23367.81
2023-03-28T09:23:51.416Z,-23328.19
2023-03-28T09:26:02.021Z,-23419.59
2023-03-28T09:28:15.924Z,-23417.22
2023-03-28T09:30:22.621Z,-23402.13
2023-03-28T09:32:27.395Z,-23413.88
2023-03-28T09:34:38.371Z,-23397.53
2023-03-28T09:36:48.840Z,-23348.72
2023-03-28T09:38:56.037Z,-23358.25
2023-03-28T09:41:03.262Z,-23350.94
2023-03-28T09:43:11.483Z,-23325.81
2023-03-28T09:45:30.392Z,-23325.97
2023-03-28T09:47:34.115Z,-23390.06
2023-03-28T09:49:36.877Z,-23427.72
2023-03-28T09:51:39.495Z,-23428.19
2023-03-28T09:53:42.478Z,-23448.50
2023-03-28T09:55:51.546Z,-23397.53
2023-03-28T09:58:06.920Z,-23445.00
2023-03-28T10:00:22.206Z,-23455.47
2023-03-28T10:02:29.696Z,-23448.19
2023-03-28T10:04:36.362Z,-23400.88
2023-03-28T10:06:40.232Z,-23397.06
2023-03-28T10:08:42.922Z,-23392.91
2023-03-28T10:10:46.063Z,-23386.56
2023-03-28T10:12:49.962Z,-23378.31
2023-03-28T10:14:53.404Z,-23389.59
2023-03-28T10:16:56.097Z,-23396.09
2023-03-28T10:19:00.255Z,-23401.50
2023-03-28T10:21:10.331Z,-23398.00
2023-03-28T10:23:14.224Z,-23389.25
2023-03-28T10:25:20.600Z,-23359.22
2023-03-28T10:27:26.702Z,-23377.81
2023-03-28T10:29:30.154Z,-23387.19
2023-03-28T10:31:33.953Z,-23411.81
2023-03-28T10:33:41.339Z,-23424.69
2023-03-28T10:35:46.506Z,-23410.06
2023-03-28T10:37:49.279Z,-23397.06
2023-03-28T10:40:05.220Z,-23378.13
2023-03-28T10:42:07.926Z,-23406.28
2023-03-28T10:44:19.183Z,-23403.09
2023-03-28T10:46:24.333Z,-23418.03
2023-03-28T10:48:31.290Z,-23411.03
2023-03-28T10:50:38.858Z,-23428.81
2023-03-28T10:52:51.449Z,-23443.09
2023-03-28T10:55:08.142Z,-23417.38
2023-03-28T10:57:20.322Z,-23421.66
2023-03-28T10:59:48.524Z,-23418.66
2023-03-28T11:02:03.925Z,-23406.91
2023-03-28T11:04:23.106Z,-23387.69
2023-03-28T11:06:34.229Z,-23415.16
2023-03-28T11:08:49.858Z,-23432.00
2023-03-28T11:11:03.735Z,-23388.78
2023-03-28T11:13:20.699Z,-23405.63
2023-03-28T11:15:31.215Z,-23404.53
2023-03-28T11:17:44.480Z,-23412.94
2023-03-28T11:20:08.971Z,-23421.81
2023-03-28T11:22:22.877Z,-23401.66
2023-03-28T11:24:35.490Z,-23417.22
2023-03-28T11:26:41.895Z,-23411.50
2023-03-28T11:28:59.780Z,-23428.81
2023-03-28T11:31:03.123Z,-23405.47
2023-03-28T11:33:14.117Z,-23402.13
2023-03-28T11:35:23.469Z,-23405.00
2023-03-28T11:37:31.916Z,-23416.44
2023-03-28T11:39:42.672Z,-23383.38
2023-03-28T11:41:48.410Z,-23397.84
2023-03-28T11:43:54.084Z,-23403.25
2023-03-28T11:46:02.700Z,-23418.81
2023-03-28T11:48:11.776Z,-23413.56
2023-03-28T11:50:19.676Z,-23437.53
2023-03-28T11:52:26.532Z,-23427.72
2023-03-28T11:54:36.865Z,-23442.78
2023-03-28T11:56:52.071Z,-23428.50
2023-03-28T11:59:00.749Z,-23443.75
2023-03-28T12:01:07.736Z,-23442.63
2023-03-28T12:03:17.348Z,-23388.63
2023-03-28T12:05:25.974Z,-23416.59
2023-03-28T12:07:35.860Z,-23410.41
2023-03-28T12:09:55.426Z,-23405.94
2023-03-28T12:12:05.623Z,-23406.91
2023-03-28T12:14:25.324Z,-23400.38
2023-03-28T12:16:34.567Z,-23387.53
2023-03-28T12:18:42.979Z,-23408.16
2023-03-28T12:20:56.003Z,-23425.31
2023-03-28T12:23:04.815Z,-23392.28
2023-03-28T12:25:13.589Z,-23429.78
2023-03-28T12:27:25.565Z,-23419.59
2023-03-28T12:29:37.337Z,-23433.28
2023-03-28T12:31:46.432Z,-23428.19
2023-03-28T12:33:57.404Z,-23384.19
2023-03-28T12:36:07.511Z,-23415.97
2023-03-28T12:38:21.035Z,-23408.16
2023-03-28T12:40:30.407Z,-23430.25
2023-03-28T12:42:36.268Z,-23416.91
2023-03-28T12:44:44.972Z,-23424.84
2023-03-28T12:46:52.961Z,-23427.06
2023-03-28T12:49:00.171Z,-23446.75
2023-03-28T12:51:08.267Z,-23431.69
2023-03-28T12:53:13.263Z,-23399.59
2023-03-28T12:55:48.635Z,-23406.59
2023-03-28T12:57:56.426Z,-23434.06
2023-03-28T13:00:14.922Z,-23416.75
2023-03-28T13:02:20.457Z,-23418.34
2023-03-28T13:04:29.521Z,-23440.25
2023-03-28T13:06:44.221Z,-23432.31
2023-03-28T13:09:01.901Z,-23425.31
2023-03-28T13:11:14.337Z,-23422.47
2023-03-28T13:13:28.259Z,-23434.69
2023-03-28T13:15:33.269Z,-23440.56
2023-03-28T13:17:39.151Z,-23451.03
2023-03-28T13:19:52.759Z,-23426.75
2023-03-28T13:21:57.532Z,-23422.78
2023-03-28T13:24:01.161Z,-23429.78
2023-03-28T13:26:05.420Z,-23444.06
2023-03-28T13:28:30.580Z,-23444.38
2023-03-28T13:30:33.576Z,-23448.50
2023-03-28T13:32:43.274Z,-23453.56
2023-03-28T13:34:50.494Z,-23437.72
2023-03-28T13:36:56.658Z,-23455.00
2023-03-28T13:39:27.566Z,-23456.75
2023-03-28T13:41:35.700Z,-23467.84
2023-03-28T13:43:44.972Z,-23462.13
2023-03-28T13:45:48.114Z,-23455.78
2023-03-28T13:47:59.794Z,-23461.19
2023-03-28T13:50:20.682Z,-23484.03
2023-03-28T13:52:25.677Z,-23480.84
2023-03-28T13:54:28.804Z,-23463.72
2023-03-28T13:56:34.197Z,-23469.44
2023-03-28T13:58:37.658Z,-23472.28
2023-03-28T14:00:41.720Z,-23469.13
2023-03-28T14:02:46.747Z,-23473.25
2023-03-28T14:04:55.024Z,-23439.28
2023-03-28T14:06:57.890Z,-23440.56
2023-03-28T14:09:02.790Z,-23468.00
2023-03-28T14:11:05.817Z,-23478.31
2023-03-28T14:13:14.629Z,-23474.19
2023-03-28T14:15:24.045Z,-23476.41
2023-03-28T14:17:33.012Z,-23470.38
2023-03-28T14:19:40.758Z,-23458.81
2023-03-28T14:21:43.963Z,-23434.53
2023-03-28T14:23:57.645Z,-23455.78
2023-03-28T14:26:02.459Z,-23443.25
2023-03-28T14:28:09.433Z,-23456.75
2023-03-28T14:30:19.670Z,-23448.50
2023-03-28T14:32:25.956Z,-23453.56
2023-03-28T14:34:32.211Z,-23463.72
2023-03-28T14:36:37.759Z,-23471.97
2023-03-28T14:38:40.660Z,-23440.88
2023-03-28T14:40:44.807Z,-23439.78
2023-03-28T14:42:50.109Z,-23437.72
2023-03-28T14:44:55.300Z,-23450.56
2023-03-28T14:47:00.156Z,-23452.94
2023-03-28T14:49:06.265Z,-23457.06
2023-03-28T14:51:13.849Z,-23472.13
2023-03-28T14:53:21.478Z,-23458.34
2023-03-28T14:55:26.158Z,-23461.50
2023-03-28T14:57:29.159Z,-23452.78
2023-03-28T14:59:40.794Z,-23464.84
2023-03-28T15:01:45.178Z,-23470.69
2023-03-28T15:03:52.438Z,-23468.16
2023-03-28T15:05:55.631Z,-23456.59
2023-03-28T15:08:02.873Z,-23453.41
2023-03-28T15:10:09.373Z,-23454.53
2023-03-28T15:12:15.939Z,-23456.44
2023-03-28T15:14:30.096Z,-23458.19
2023-03-28T15:16:37.738Z,-23468.50
2023-03-28T15:18:44.464Z,-23469.13
2023-03-28T15:20:52.708Z,-23473.72
2023-03-28T15:22:57.807Z,-23468.81
2023-03-28T15:25:01.924Z,-23467.06
2023-03-28T15:27:05.770Z,-23467.38
2023-03-28T15:29:09.786Z,-23463.09
2023-03-28T15:31:14.959Z,-23455.16
2023-03-28T15:33:21.017Z,-23468.81
2023-03-28T15:35:30.593Z,-23463.41
2023-03-28T15:37:42.205Z,-23456.44
2023-03-28T15:39:47.657Z,-23471.81
2023-03-28T15:41:54.948Z,-23455.00
2023-03-28T15:44:00.715Z,-23461.19
2023-03-28T15:46:08.925Z,-23453.56
2023-03-28T15:48:19.746Z,-23455.78
2023-03-28T15:50:27.611Z,-23453.91
2023-03-28T15:52:31.691Z,-23471.66
2023-03-28T15:54:42.627Z,-23466.25
2023-03-28T15:56:48.519Z,-23471.50
2023-03-28T15:58:53.614Z,-23465.00
2023-03-28T16:00:56.332Z,-23466.56
2023-03-28T16:03:34.491Z,-23459.28
2023-03-28T16:05:37.858Z,-23453.25
2023-03-28T16:07:50.490Z,-23459.13
2023-03-28T16:09:52.990Z,-23453.25
2023-03-28T16:12:03.137Z,-23458.66
2023-03-28T16:14:07.199Z,-23455.63
2023-03-28T16:16:15.431Z,-23454.38
2023-03-28T16:18:20.355Z,-23460.72
2023-03-28T16:20:25.208Z,-23456.59
2023-03-28T16:22:27.949Z,-23461.19
2023-03-28T16:24:31.327Z,-23455.16
2023-03-28T16:26:34.925Z,-23448.03
2023-03-28T16:28:37.646Z,-23452.78
2023-03-28T16:30:42.513Z,-23456.44
2023-03-28T16:32:45.313Z,-23453.72
2023-03-28T16:34:48.537Z,-23456.13
2023-03-28T16:36:51.675Z,-23450.25
2023-03-28T16:38:54.338Z,-23447.53
2023-03-28T16:40:56.949Z,-23445.97
2023-03-28T16:43:00.311Z,-23447.53
2023-03-28T16:45:03.096Z,-23444.69
2023-03-28T16:47:07.230Z,-23446.91
2023-03-28T16:49:09.977Z,-23441.84
2023-03-28T16:51:12.908Z,-23441.19
2023-03-28T16:53:15.774Z,-23441.84
2023-03-28T16:55:20.013Z,-23440.88
2023-03-28T16:57:23.130Z,-23439.28
2023-03-28T16:59:29.045Z,-23436.44
2023-03-28T17:01:31.712Z,-23430.56
2023-03-28T17:03:36.717Z,-23430.72
2023-03-28T17:05:39.587Z,-23428.81
2023-03-28T17:07:42.512Z,-23426.59
2023-03-28T17:09:45.159Z,-23426.13
2023-03-28T17:11:47.809Z,-23425.31
2023-03-28T17:13:53.108Z,-23425.63
2023-03-28T17:15:56.308Z,-23424.69
2023-03-28T17:17:59.215Z,-23420.56
2023-03-28T17:20:03.429Z,-23421.50
2023-03-28T17:22:06.623Z,-23420.56
2023-03-28T17:24:11.537Z,-23417.38
2023-03-28T17:26:17.165Z,-23411.97
2023-03-28T17:28:19.793Z,-23407.69
2023-03-28T17:30:22.785Z,-23411.34
2023-03-28T17:32:25.795Z,-23406.91
2023-03-28T17:34:31.790Z,-23403.72
2023-03-28T17:36:36.417Z,-23398.78
2023-03-28T17:38:39.108Z,-23404.34
2023-03-28T17:40:47.157Z,-23401.03
2023-03-28T17:42:49.805Z,-23400.22
2023-03-28T17:44:54.543Z,-23400.22
2023-03-28T17:46:57.519Z,-23395.16
2023-03-28T17:49:00.270Z,-23390.38
2023-03-28T17:51:03.850Z,-23392.91
2023-03-28T17:53:07.854Z,-23388.31
2023-03-28T17:55:10.648Z,-23391.34
2023-03-28T17:57:13.683Z,-23391.00
2023-03-28T17:59:16.813Z,-23386.72
2023-03-28T18:01:19.616Z,-23388.31
2023-03-28T18:03:23.337Z,-23387.84
2023-03-28T18:05:28.149Z,-23389.44
2023-03-28T18:07:30.842Z,-23389.44
2023-03-28T18:09:36.462Z,-23388.78
2023-03-28T18:11:39.796Z,-23385.78
2023-03-28T18:13:43.090Z,-23384.34
2023-03-28T18:15:45.758Z,-23386.88
2023-03-28T18:17:48.418Z,-23387.53
2023-03-28T18:19:51.095Z,-23388.16
2023-03-28T18:21:54.628Z,-23386.25
2023-03-28T18:24:00.479Z,-23387.69
2023-03-28T18:26:05.436Z,-23385.59
2023-03-28T18:28:08.670Z,-23385.28
2023-03-28T18:30:12.248Z,-23385.94
2023-03-28T18:32:14.859Z,-23383.38
2023-03-28T18:34:17.606Z,-23384.03
2023-03-28T18:36:20.373Z,-23383.88
2023-03-28T18:38:23.009Z,-23385.44
2023-03-28T18:40:25.735Z,-23383.06
2023-03-28T18:42:31.407Z,-23381.47
2023-03-28T18:44:35.689Z,-23380.69
2023-03-28T18:46:38.727Z,-23380.84
2023-03-28T18:48:41.748Z,-23375.91
2023-03-28T18:50:44.453Z,-23374.81
2023-03-28T18:52:47.792Z,-23370.66
2023-03-28T18:54:51.008Z,-23369.56
2023-03-28T18:56:53.725Z,-23370.03
2023-03-28T18:58:58.257Z,-23370.66
2023-03-28T19:01:03.461Z,-23369.25
2023-03-28T19:03:09.070Z,-23372.09
2023-03-28T19:05:12.149Z,-23373.22
2023-03-28T19:07:14.880Z,-23371.63
2023-03-28T19:09:17.495Z,-23373.22
2023-03-28T19:11:20.568Z,-23372.91
2023-03-28T19:13:23.496Z,-23369.88
2023-03-28T19:15:27.497Z,-23372.25
2023-03-28T19:17:30.728Z,-23369.72
2023-03-28T19:19:37.173Z,-23368.28
2023-03-28T19:21:39.876Z,-23367.50
2023-03-28T19:23:42.746Z,-23369.88
2023-03-28T19:25:45.438Z,-23369.41
2023-03-28T19:27:50.317Z,-23371.94
2023-03-28T19:29:52.882Z,-23371.31
2023-03-28T19:31:56.893Z,-23371.94
2023-03-28T19:33:59.612Z,-23371.63
2023-03-28T19:36:02.457Z,-23375.13
2023-03-28T19:38:05.344Z,-23371.63
2023-03-28T19:40:09.593Z,-23373.06
2023-03-28T19:42:12.269Z,-23377.19
2023-03-28T19:44:14.900Z,-23376.72
2023-03-28T19:46:23.887Z,-23376.41
2023-03-28T19:48:30.248Z,-23377.34
2023-03-28T19:50:35.736Z,-23379.09
2023-03-28T19:52:39.512Z,-23380.84
2023-03-28T19:54:42.156Z,-23383.69
2023-03-28T19:56:44.889Z,-23383.06
2023-03-28T19:58:47.968Z,-23381.78
2023-03-28T20:00:51.175Z,-23381.78
2023-03-28T20:02:53.961Z,-23382.13
2023-03-28T20:04:58.259Z,-23384.34
2023-03-28T20:07:00.898Z,-23382.44
2023-03-28T20:09:03.743Z,-23381.78
2023-03-28T20:11:09.377Z,-23383.06
2023-03-28T20:13:12.364Z,-23383.38
2023-03-28T20:15:14.987Z,-23384.03
2023-03-28T20:17:17.998Z,-23385.13
2023-03-28T20:19:20.651Z,-23383.88
2023-03-28T20:21:24.637Z,-23382.59
2023-03-28T20:23:29.029Z,-23382.13
2023-03-28T20:25:33.074Z,-23382.75
2023-03-28T20:27:37.220Z,-23383.38
2023-03-28T20:29:40.100Z,-23382.91
2023-03-28T20:31:42.729Z,-23386.41
2023-03-28T20:33:46.160Z,-23383.22
2023-03-28T20:35:52.732Z,-23383.06
2023-03-28T20:37:56.970Z,-23384.34
2023-03-28T20:40:02.446Z,-23383.06
2023-03-28T20:42:06.192Z,-23383.69
2023-03-28T20:44:08.877Z,-23383.69
2023-03-28T20:46:12.674Z,-23383.69
2023-03-28T20:48:16.687Z,-23383.06
2023-03-28T20:50:19.527Z,-23383.06
2023-03-28T20:52:22.100Z,-23380.84
2023-03-28T20:54:27.816Z,-23379.88
2023-03-28T20:56:32.302Z,-23379.88
2023-03-28T20:58:35.286Z,-23379.25
2023-03-28T21:00:37.912Z,-23378.47
2023-03-28T21:02:41.022Z,-23378.94
2023-03-28T21:04:44.006Z,-23379.25
2023-03-28T21:06:46.668Z,-23380.06
2023-03-28T21:08:51.115Z,-23382.13
2023-03-28T21:10:55.057Z,-23382.91
2023-03-28T21:12:57.714Z,-23383.69
2023-03-28T21:15:00.320Z,-23385.13
2023-03-28T21:17:07.233Z,-23380.38
2023-03-28T21:19:09.939Z,-23379.88
2023-03-28T21:21:14.942Z,-23380.22
2023-03-28T21:23:17.623Z,-23382.75
2023-03-28T21:25:20.886Z,-23377.97
2023-03-28T21:27:24.820Z,-23377.34
2023-03-28T21:29:27.699Z,-23379.56
2023-03-28T21:31:30.829Z,-23378.31
2023-03-28T21:33:33.544Z,-23378.78
2023-03-28T21:35:36.610Z,-23378.78
2023-03-28T21:37:39.356Z,-23380.06
2023-03-28T21:39:42.047Z,-23378.94
2023-03-28T21:41:44.645Z,-23375.75
2023-03-28T21:43:48.661Z,-23379.25
2023-03-28T21:45:51.732Z,-23376.72
2023-03-28T21:47:54.392Z,-23377.50
2023-03-28T21:50:00.080Z,-23378.78
2023-03-28T21:52:02.749Z,-23379.25
2023-03-28T21:54:05.951Z,-23379.09
2023-03-28T21:56:11.493Z,-23378.13
2023-03-28T21:58:14.261Z,-23379.09
2023-03-28T22:00:18.839Z,-23377.66
2023-03-28T22:02:21.548Z,-23376.72
2023-03-28T22:04:24.168Z,-23378.94
2023-03-28T22:06:26.995Z,-23386.25
2023-03-28T22:08:29.707Z,-23386.88
2023-03-28T22:10:32.452Z,-23381.63
2023-03-28T22:12:35.149Z,-23377.03
2023-03-28T22:14:37.797Z,-23373.06
2023-03-28T22:16:41.874Z,-23374.63
2023-03-28T22:18:49.641Z,-23375.28
2023-03-28T22:20:53.854Z,-23374.31
2023-03-28T22:23:01.087Z,-23372.91
2023-03-28T22:25:04.335Z,-23379.88
2023-03-28T22:27:07.176Z,-23376.56
2023-03-28T22:29:10.459Z,-23372.91
2023-03-28T22:31:13.654Z,-23370.34
2023-03-28T22:33:19.265Z,-23372.25
2023-03-28T22:35:21.989Z,-23369.56
2023-03-28T22:37:24.599Z,-23371.31
2023-03-28T22:39:27.192Z,-23366.53
2023-03-28T22:41:31.736Z,-23368.59
2023-03-28T22:43:35.503Z,-23369.06
2023-03-28T22:45:38.291Z,-23374.97
2023-03-28T22:47:40.995Z,-23376.88
2023-03-28T22:49:46.070Z,-23374.81
2023-03-28T22:51:49.456Z,-23370.34
2023-03-28T22:53:52.931Z,-23368.44
2023-03-28T22:55:56.622Z,-23361.94
2023-03-28T22:57:59.539Z,-23357.31
2023-03-28T23:00:02.293Z,-23353.97
2023-03-28T23:02:05.012Z,-23352.53
2023-03-28T23:04:07.744Z,-23349.34
2023-03-28T23:06:13.576Z,-23344.72
2023-03-28T23:08:16.176Z,-23340.13
2023-03-28T23:10:19.942Z,-23341.06
2023-03-28T23:12:22.535Z,-23339.00
2023-03-28T23:14:25.239Z,-23336.63
2023-03-28T23:16:27.983Z,-23338.84
2023-03-28T23:18:31.083Z,-23337.41
2023-03-28T23:20:33.736Z,-23335.50
2023-03-28T23:22:37.984Z,-23335.34
2023-03-28T23:24:40.978Z,-23331.06
2023-03-28T23:26:43.541Z,-23328.97
2023-03-28T23:28:46.423Z,-23330.88
2023-03-28T23:30:49.100Z,-23329.63
2023-03-28T23:32:51.988Z,-23325.81
2023-03-28T23:34:54.898Z,-23327.06
2023-03-28T23:36:58.009Z,-23327.72
2023-03-28T23:39:02.612Z,-23329.94
2023-03-28T23:41:06.493Z,-23330.75
2023-03-28T23:43:09.149Z,-23335.50
2023-03-28T23:45:12.820Z,-23337.09
2023-03-28T23:47:15.826Z,-23333.28
2023-03-28T23:49:18.617Z,-23337.25
2023-03-28T23:51:21.204Z,-23332.97
2023-03-28T23:53:23.787Z,-23328.66
2023-03-28T23:55:27.941Z,-23326.44
2023-03-28T23:57:30.564Z,-23334.06
2023-03-28T23:59:33.237Z,-23327.06
